sensor_id;sensor_type;location;lat;lon;timestamp;P1;P2;P0
49644;PMS5003;36494;50.730;-1.932;2023-06-24T00:00:52;30;28;
49644;PMS5003;36494;50.730;-1.932;2023-06-24T00:03:17;25;25;
49644;PMS5003;36494;50.730;-1.932;2023-06-24T00:05:43;26;26;
49644;PMS5003;36494;50.730;-1.932;2023-06-24T00:08:08;27;26;
49644;PMS5003;36494;50.730;-1.932;2023-06-24T00:10:34;30;27;
49644;PMS5003;36494;50.730;-1.932;2023-06-24T00:12:59;26;25;
49644;PMS5003;36494;50.730;-1.932;2023-06-24T00:15:24;22;22;
49644;PMS5003;36494;50.730;-1.932;2023-06-24T00:17:50;21;21;
49644;PMS5003;36494;50.730;-1.932;2023-06-24T00:20:15;22;21;
49644;PMS5003;36494;50.730;-1.932;2023-06-24T00:22:41;27;26;
49644;PMS5003;36494;50.730;-1.932;2023-06-24T00:25:06;27;26;
49644;PMS5003;36494;50.730;-1.932;2023-06-24T00:27:32;24;22;
49644;PMS5003;36494;50.730;-1.932;2023-06-24T00:29:58;23;21;
49644;PMS5003;36494;50.730;-1.932;2023-06-24T00:32:23;26;26;
49644;PMS5003;36494;50.730;-1.932;2023-06-24T00:34:49;29;28;
49644;PMS5003;36494;50.730;-1.932;2023-06-24T00:37:14;28;27;
49644;PMS5003;36494;50.730;-1.932;2023-06-24T00:39:39;29;28;
49644;PMS5003;36494;50.730;-1.932;2023-06-24T00:42:04;27;25;
49644;PMS5003;36494;50.730;-1.932;2023-06-24T00:44:30;26;25;
49644;PMS5003;36494;50.730;-1.932;2023-06-24T00:46:55;28;27;
49644;PMS5003;36494;50.730;-1.932;2023-06-24T00:49:21;28;26;
49644;PMS5003;36494;50.730;-1.932;2023-06-24T00:51:46;25;24;
49644;PMS5003;36494;50.730;-1.932;2023-06-24T00:54:11;28;26;
49644;PMS5003;36494;50.730;-1.932;2023-06-24T00:56:37;27;27;
49644;PMS5003;36494;50.730;-1.932;2023-06-24T00:59:03;26;26;
49644;PMS5003;36494;50.730;-1.932;2023-06-24T01:01:28;28;27;
49644;PMS5003;36494;50.730;-1.932;2023-06-24T01:03:53;29;25;
49644;PMS5003;36494;50.730;-1.932;2023-06-24T01:06:18;28;27;
49644;PMS5003;36494;50.730;-1.932;2023-06-24T01:08:44;28;26;
49644;PMS5003;36494;50.730;-1.932;2023-06-24T01:11:10;25;24;
49644;PMS5003;36494;50.730;-1.932;2023-06-24T01:13:35;25;23;
49644;PMS5003;36494;50.730;-1.932;2023-06-24T01:16:02;28;27;
49644;PMS5003;36494;50.730;-1.932;2023-06-24T01:18:28;26;25;
49644;PMS5003;36494;50.730;-1.932;2023-06-24T01:20:53;30;28;
49644;PMS5003;36494;50.730;-1.932;2023-06-24T01:23:27;29;28;
49644;PMS5003;36494;50.730;-1.932;2023-06-24T01:25:46;26;25;
49644;PMS5003;36494;50.730;-1.932;2023-06-24T01:30:38;25;24;
49644;PMS5003;36494;50.730;-1.932;2023-06-24T01:32:59;29;29;
49644;PMS5003;36494;50.730;-1.932;2023-06-24T01:35:26;30;29;
49644;PMS5003;36494;50.730;-1.932;2023-06-24T01:37:51;23;23;
49644;PMS5003;36494;50.730;-1.932;2023-06-24T01:40:18;26;23;
49644;PMS5003;36494;50.730;-1.932;2023-06-24T01:42:42;26;26;
49644;PMS5003;36494;50.730;-1.932;2023-06-24T01:45:07;22;22;
49644;PMS5003;36494;50.730;-1.932;2023-06-24T01:47:32;31;30;
49644;PMS5003;36494;50.730;-1.932;2023-06-24T01:49:57;32;29;
49644;PMS5003;36494;50.730;-1.932;2023-06-24T01:52:22;28;25;
49644;PMS5003;36494;50.730;-1.932;2023-06-24T01:54:48;25;25;
49644;PMS5003;36494;50.730;-1.932;2023-06-24T01:57:14;26;25;
49644;PMS5003;36494;50.730;-1.932;2023-06-24T01:59:39;25;24;
49644;PMS5003;36494;50.730;-1.932;2023-06-24T02:02:04;21;21;
49644;PMS5003;36494;50.730;-1.932;2023-06-24T02:04:29;26;26;
49644;PMS5003;36494;50.730;-1.932;2023-06-24T02:06:55;25;24;
49644;PMS5003;36494;50.730;-1.932;2023-06-24T02:09:20;25;24;
49644;PMS5003;36494;50.730;-1.932;2023-06-24T02:11:46;26;25;
49644;PMS5003;36494;50.730;-1.932;2023-06-24T02:14:11;25;24;
49644;PMS5003;36494;50.730;-1.932;2023-06-24T02:16:37;24;22;
49644;PMS5003;36494;50.730;-1.932;2023-06-24T02:19:03;28;27;
49644;PMS5003;36494;50.730;-1.932;2023-06-24T02:21:28;27;26;
49644;PMS5003;36494;50.730;-1.932;2023-06-24T02:23:53;29;28;
49644;PMS5003;36494;50.730;-1.932;2023-06-24T02:26:18;27;26;
49644;PMS5003;36494;50.730;-1.932;2023-06-24T02:28:44;28;27;
49644;PMS5003;36494;50.730;-1.932;2023-06-24T02:31:10;24;23;
49644;PMS5003;36494;50.730;-1.932;2023-06-24T02:33:35;23;22;
49644;PMS5003;36494;50.730;-1.932;2023-06-24T02:36:01;26;25;
49644;PMS5003;36494;50.730;-1.932;2023-06-24T02:38:26;22;20;
49644;PMS5003;36494;50.730;-1.932;2023-06-24T02:40:52;24;23;
49644;PMS5003;36494;50.730;-1.932;2023-06-24T02:43:17;24;23;
49644;PMS5003;36494;50.730;-1.932;2023-06-24T02:45:42;27;25;
49644;PMS5003;36494;50.730;-1.932;2023-06-24T02:48:08;24;24;
49644;PMS5003;36494;50.730;-1.932;2023-06-24T02:50:33;23;21;
49644;PMS5003;36494;50.730;-1.932;2023-06-24T02:52:59;22;22;
49644;PMS5003;36494;50.730;-1.932;2023-06-24T02:55:24;23;23;
49644;PMS5003;36494;50.730;-1.932;2023-06-24T02:57:50;21;21;
49644;PMS5003;36494;50.730;-1.932;2023-06-24T03:00:16;25;24;
49644;PMS5003;36494;50.730;-1.932;2023-06-24T03:02:41;21;20;
49644;PMS5003;36494;50.730;-1.932;2023-06-24T03:05:07;21;21;
49644;PMS5003;36494;50.730;-1.932;2023-06-24T03:07:32;27;26;
49644;PMS5003;36494;50.730;-1.932;2023-06-24T03:09:57;20;19;
49644;PMS5003;36494;50.730;-1.932;2023-06-24T03:12:23;22;21;
49644;PMS5003;36494;50.730;-1.932;2023-06-24T03:14:48;20;19;
49644;PMS5003;36494;50.730;-1.932;2023-06-24T03:17:14;25;24;
49644;PMS5003;36494;50.730;-1.932;2023-06-24T03:19:39;22;21;
49644;PMS5003;36494;50.730;-1.932;2023-06-24T03:22:04;21;21;
49644;PMS5003;36494;50.730;-1.932;2023-06-24T03:24:30;18;17;
49644;PMS5003;36494;50.730;-1.932;2023-06-24T03:26:56;24;24;
49644;PMS5003;36494;50.730;-1.932;2023-06-24T03:29:21;24;23;
49644;PMS5003;36494;50.730;-1.932;2023-06-24T03:31:46;24;23;
49644;PMS5003;36494;50.730;-1.932;2023-06-24T03:34:12;21;20;
49644;PMS5003;36494;50.730;-1.932;2023-06-24T03:36:37;22;22;
49644;PMS5003;36494;50.730;-1.932;2023-06-24T03:39:03;18;17;
49644;PMS5003;36494;50.730;-1.932;2023-06-24T03:41:28;21;20;
49644;PMS5003;36494;50.730;-1.932;2023-06-24T03:43:54;19;18;
49644;PMS5003;36494;50.730;-1.932;2023-06-24T03:46:20;20;20;
49644;PMS5003;36494;50.730;-1.932;2023-06-24T03:48:45;20;20;
49644;PMS5003;36494;50.730;-1.932;2023-06-24T03:51:10;19;19;
49644;PMS5003;36494;50.730;-1.932;2023-06-24T03:53:36;20;20;
49644;PMS5003;36494;50.730;-1.932;2023-06-24T03:56:02;20;19;
49644;PMS5003;36494;50.730;-1.932;2023-06-24T03:58:27;19;18;
49644;PMS5003;36494;50.730;-1.932;2023-06-24T04:00:52;17;16;
49644;PMS5003;36494;50.730;-1.932;2023-06-24T04:03:18;20;18;
49644;PMS5003;36494;50.730;-1.932;2023-06-24T04:05:43;22;21;
49644;PMS5003;36494;50.730;-1.932;2023-06-24T04:08:08;20;19;
49644;PMS5003;36494;50.730;-1.932;2023-06-24T04:10:33;20;18;
49644;PMS5003;36494;50.730;-1.932;2023-06-24T04:12:59;22;20;
49644;PMS5003;36494;50.730;-1.932;2023-06-24T04:15:24;21;20;
49644;PMS5003;36494;50.730;-1.932;2023-06-24T04:17:49;20;18;
49644;PMS5003;36494;50.730;-1.932;2023-06-24T04:20:14;20;19;
49644;PMS5003;36494;50.730;-1.932;2023-06-24T04:22:40;21;19;
49644;PMS5003;36494;50.730;-1.932;2023-06-24T04:25:05;19;19;
49644;PMS5003;36494;50.730;-1.932;2023-06-24T04:27:30;24;23;
49644;PMS5003;36494;50.730;-1.932;2023-06-24T04:29:55;22;20;
49644;PMS5003;36494;50.730;-1.932;2023-06-24T04:32:21;20;19;
49644;PMS5003;36494;50.730;-1.932;2023-06-24T04:34:46;18;17;
49644;PMS5003;36494;50.730;-1.932;2023-06-24T04:37:12;22;20;
49644;PMS5003;36494;50.730;-1.932;2023-06-24T04:39:38;21;19;
49644;PMS5003;36494;50.730;-1.932;2023-06-24T04:42:03;24;20;
49644;PMS5003;36494;50.730;-1.932;2023-06-24T04:44:28;21;20;
49644;PMS5003;36494;50.730;-1.932;2023-06-24T04:46:54;22;20;
49644;PMS5003;36494;50.730;-1.932;2023-06-24T04:49:19;18;17;
49644;PMS5003;36494;50.730;-1.932;2023-06-24T04:51:44;23;21;
49644;PMS5003;36494;50.730;-1.932;2023-06-24T04:54:10;20;19;
49644;PMS5003;36494;50.730;-1.932;2023-06-24T04:56:35;15;15;
49644;PMS5003;36494;50.730;-1.932;2023-06-24T04:59:01;22;20;
49644;PMS5003;36494;50.730;-1.932;2023-06-24T05:01:26;18;18;
49644;PMS5003;36494;50.730;-1.932;2023-06-24T05:03:51;19;19;
49644;PMS5003;36494;50.730;-1.932;2023-06-24T05:06:16;21;20;
49644;PMS5003;36494;50.730;-1.932;2023-06-24T05:08:42;19;18;
49644;PMS5003;36494;50.730;-1.932;2023-06-24T05:11:07;25;24;
49644;PMS5003;36494;50.730;-1.932;2023-06-24T05:13:33;27;23;
49644;PMS5003;36494;50.730;-1.932;2023-06-24T05:15:59;19;18;
49644;PMS5003;36494;50.730;-1.932;2023-06-24T05:18:24;20;19;
49644;PMS5003;36494;50.730;-1.932;2023-06-24T05:20:49;22;22;
49644;PMS5003;36494;50.730;-1.932;2023-06-24T05:23:15;20;19;
49644;PMS5003;36494;50.730;-1.932;2023-06-24T05:25:40;17;16;
49644;PMS5003;36494;50.730;-1.932;2023-06-24T05:28:05;22;20;
49644;PMS5003;36494;50.730;-1.932;2023-06-24T05:30:30;22;20;
49644;PMS5003;36494;50.730;-1.932;2023-06-24T05:32:56;21;20;
49644;PMS5003;36494;50.730;-1.932;2023-06-24T05:35:21;22;22;
49644;PMS5003;36494;50.730;-1.932;2023-06-24T05:37:46;16;15;
49644;PMS5003;36494;50.730;-1.932;2023-06-24T05:40:11;19;19;
49644;PMS5003;36494;50.730;-1.932;2023-06-24T05:42:36;17;17;
49644;PMS5003;36494;50.730;-1.932;2023-06-24T05:45:02;18;18;
49644;PMS5003;36494;50.730;-1.932;2023-06-24T05:47:27;19;18;
49644;PMS5003;36494;50.730;-1.932;2023-06-24T05:49:52;22;21;
49644;PMS5003;36494;50.730;-1.932;2023-06-24T05:52:18;18;18;
49644;PMS5003;36494;50.730;-1.932;2023-06-24T05:54:43;18;16;
49644;PMS5003;36494;50.730;-1.932;2023-06-24T05:57:08;24;21;
49644;PMS5003;36494;50.730;-1.932;2023-06-24T05:59:33;18;18;
49644;PMS5003;36494;50.730;-1.932;2023-06-24T06:01:59;20;19;
49644;PMS5003;36494;50.730;-1.932;2023-06-24T06:04:24;18;18;
49644;PMS5003;36494;50.730;-1.932;2023-06-24T06:06:49;16;16;
49644;PMS5003;36494;50.730;-1.932;2023-06-24T06:09:14;19;18;
49644;PMS5003;36494;50.730;-1.932;2023-06-24T06:11:39;15;15;
49644;PMS5003;36494;50.730;-1.932;2023-06-24T06:14:05;23;22;
49644;PMS5003;36494;50.730;-1.932;2023-06-24T06:16:30;20;19;
49644;PMS5003;36494;50.730;-1.932;2023-06-24T06:18:56;18;17;
49644;PMS5003;36494;50.730;-1.932;2023-06-24T06:21:21;19;19;
49644;PMS5003;36494;50.730;-1.932;2023-06-24T06:23:46;20;20;
49644;PMS5003;36494;50.730;-1.932;2023-06-24T06:26:12;22;21;
49644;PMS5003;36494;50.730;-1.932;2023-06-24T06:28:37;18;17;
49644;PMS5003;36494;50.730;-1.932;2023-06-24T06:31:02;23;21;
49644;PMS5003;36494;50.730;-1.932;2023-06-24T06:33:28;25;24;
49644;PMS5003;36494;50.730;-1.932;2023-06-24T06:35:54;20;18;
49644;PMS5003;36494;50.730;-1.932;2023-06-24T06:38:19;19;18;
49644;PMS5003;36494;50.730;-1.932;2023-06-24T06:40:44;17;17;
49644;PMS5003;36494;50.730;-1.932;2023-06-24T06:43:10;16;16;
49644;PMS5003;36494;50.730;-1.932;2023-06-24T06:45:36;22;21;
49644;PMS5003;36494;50.730;-1.932;2023-06-24T06:48:01;18;17;
49644;PMS5003;36494;50.730;-1.932;2023-06-24T06:50:27;21;19;
49644;PMS5003;36494;50.730;-1.932;2023-06-24T06:52:52;19;17;
49644;PMS5003;36494;50.730;-1.932;2023-06-24T06:55:17;16;16;
49644;PMS5003;36494;50.730;-1.932;2023-06-24T06:57:43;20;18;
49644;PMS5003;36494;50.730;-1.932;2023-06-24T07:00:08;21;21;
49644;PMS5003;36494;50.730;-1.932;2023-06-24T07:02:33;18;18;
49644;PMS5003;36494;50.730;-1.932;2023-06-24T07:04:59;15;15;
49644;PMS5003;36494;50.730;-1.932;2023-06-24T07:07:24;15;15;
49644;PMS5003;36494;50.730;-1.932;2023-06-24T07:09:50;17;16;
49644;PMS5003;36494;50.730;-1.932;2023-06-24T07:12:15;19;18;
49644;PMS5003;36494;50.730;-1.932;2023-06-24T07:14:41;16;15;
49644;PMS5003;36494;50.730;-1.932;2023-06-24T07:17:07;17;16;
49644;PMS5003;36494;50.730;-1.932;2023-06-24T07:19:32;17;15;
49644;PMS5003;36494;50.730;-1.932;2023-06-24T07:21:57;19;18;
49644;PMS5003;36494;50.730;-1.932;2023-06-24T07:24:22;18;18;
49644;PMS5003;36494;50.730;-1.932;2023-06-24T07:26:48;19;18;
49644;PMS5003;36494;50.730;-1.932;2023-06-24T07:29:14;16;16;
49644;PMS5003;36494;50.730;-1.932;2023-06-24T07:31:39;17;17;
49644;PMS5003;36494;50.730;-1.932;2023-06-24T07:34:05;17;16;
49644;PMS5003;36494;50.730;-1.932;2023-06-24T07:36:30;17;16;
49644;PMS5003;36494;50.730;-1.932;2023-06-24T07:38:56;17;17;
49644;PMS5003;36494;50.730;-1.932;2023-06-24T07:41:21;15;14;
49644;PMS5003;36494;50.730;-1.932;2023-06-24T07:43:47;13;13;
49644;PMS5003;36494;50.730;-1.932;2023-06-24T07:46:13;15;15;
49644;PMS5003;36494;50.730;-1.932;2023-06-24T07:48:38;18;18;
49644;PMS5003;36494;50.730;-1.932;2023-06-24T07:51:04;17;16;
49644;PMS5003;36494;50.730;-1.932;2023-06-24T07:53:29;17;17;
49644;PMS5003;36494;50.730;-1.932;2023-06-24T07:55:55;16;16;
49644;PMS5003;36494;50.730;-1.932;2023-06-24T07:58:20;15;15;
49644;PMS5003;36494;50.730;-1.932;2023-06-24T08:00:45;14;13;
49644;PMS5003;36494;50.730;-1.932;2023-06-24T08:03:12;16;13;
49644;PMS5003;36494;50.730;-1.932;2023-06-24T08:05:37;16;16;
49644;PMS5003;36494;50.730;-1.932;2023-06-24T08:08:02;17;16;
49644;PMS5003;36494;50.730;-1.932;2023-06-24T08:10:27;14;14;
49644;PMS5003;36494;50.730;-1.932;2023-06-24T08:12:52;18;14;
49644;PMS5003;36494;50.730;-1.932;2023-06-24T08:15:17;12;12;
49644;PMS5003;36494;50.730;-1.932;2023-06-24T08:17:43;11;11;
49644;PMS5003;36494;50.730;-1.932;2023-06-24T08:20:09;11;11;
49644;PMS5003;36494;50.730;-1.932;2023-06-24T08:22:34;11;11;
49644;PMS5003;36494;50.730;-1.932;2023-06-24T08:24:59;14;13;
49644;PMS5003;36494;50.730;-1.932;2023-06-24T08:27:24;11;11;
49644;PMS5003;36494;50.730;-1.932;2023-06-24T08:29:50;11;11;
49644;PMS5003;36494;50.730;-1.932;2023-06-24T08:32:15;12;12;
49644;PMS5003;36494;50.730;-1.932;2023-06-24T08:34:41;11;11;
49644;PMS5003;36494;50.730;-1.932;2023-06-24T08:37:06;10;10;
49644;PMS5003;36494;50.730;-1.932;2023-06-24T08:39:32;9;9;
49644;PMS5003;36494;50.730;-1.932;2023-06-24T08:41:58;15;15;
49644;PMS5003;36494;50.730;-1.932;2023-06-24T08:44:23;13;12;
49644;PMS5003;36494;50.730;-1.932;2023-06-24T08:46:48;16;15;
49644;PMS5003;36494;50.730;-1.932;2023-06-24T08:49:17;13;13;
49644;PMS5003;36494;50.730;-1.932;2023-06-24T08:51:40;9;9;
49644;PMS5003;36494;50.730;-1.932;2023-06-24T08:54:05;11;11;
49644;PMS5003;36494;50.730;-1.932;2023-06-24T08:56:30;13;11;
49644;PMS5003;36494;50.730;-1.932;2023-06-24T08:58:56;11;11;
49644;PMS5003;36494;50.730;-1.932;2023-06-24T09:01:21;11;11;
49644;PMS5003;36494;50.730;-1.932;2023-06-24T09:03:47;14;13;
49644;PMS5003;36494;50.730;-1.932;2023-06-24T09:06:12;12;11;
49644;PMS5003;36494;50.730;-1.932;2023-06-24T09:08:37;11;10;
49644;PMS5003;36494;50.730;-1.932;2023-06-24T09:11:03;8;7;
49644;PMS5003;36494;50.730;-1.932;2023-06-24T09:13:34;9;9;
49644;PMS5003;36494;50.730;-1.932;2023-06-24T09:15:54;11;11;
49644;PMS5003;36494;50.730;-1.932;2023-06-24T09:18:19;14;12;
49644;PMS5003;36494;50.730;-1.932;2023-06-24T09:20:45;10;9;
49644;PMS5003;36494;50.730;-1.932;2023-06-24T09:23:10;9;8;
49644;PMS5003;36494;50.730;-1.932;2023-06-24T09:25:36;11;9;
49644;PMS5003;36494;50.730;-1.932;2023-06-24T09:28:01;10;10;
49644;PMS5003;36494;50.730;-1.932;2023-06-24T09:30:26;7;7;
49644;PMS5003;36494;50.730;-1.932;2023-06-24T09:32:52;10;10;
49644;PMS5003;36494;50.730;-1.932;2023-06-24T09:35:18;11;11;
49644;PMS5003;36494;50.730;-1.932;2023-06-24T09:37:42;9;9;
49644;PMS5003;36494;50.730;-1.932;2023-06-24T09:40:08;14;14;
49644;PMS5003;36494;50.730;-1.932;2023-06-24T09:42:33;13;13;
49644;PMS5003;36494;50.730;-1.932;2023-06-24T09:44:58;16;15;
49644;PMS5003;36494;50.730;-1.932;2023-06-24T09:47:24;14;14;
49644;PMS5003;36494;50.730;-1.932;2023-06-24T09:49:50;11;11;
49644;PMS5003;36494;50.730;-1.932;2023-06-24T09:52:15;12;12;
49644;PMS5003;36494;50.730;-1.932;2023-06-24T09:54:41;9;9;
49644;PMS5003;36494;50.730;-1.932;2023-06-24T09:57:06;10;9;
49644;PMS5003;36494;50.730;-1.932;2023-06-24T09:59:31;11;11;
49644;PMS5003;36494;50.730;-1.932;2023-06-24T10:01:56;10;9;
49644;PMS5003;36494;50.730;-1.932;2023-06-24T10:04:22;10;10;
49644;PMS5003;36494;50.730;-1.932;2023-06-24T10:06:47;12;11;
49644;PMS5003;36494;50.730;-1.932;2023-06-24T10:09:12;10;9;
49644;PMS5003;36494;50.730;-1.932;2023-06-24T10:11:38;9;9;
49644;PMS5003;36494;50.730;-1.932;2023-06-24T10:14:03;11;11;
49644;PMS5003;36494;50.730;-1.932;2023-06-24T10:16:29;9;9;
49644;PMS5003;36494;50.730;-1.932;2023-06-24T10:18:59;10;10;
49644;PMS5003;36494;50.730;-1.932;2023-06-24T10:21:19;12;12;
49644;PMS5003;36494;50.730;-1.932;2023-06-24T10:23:51;12;12;
49644;PMS5003;36494;50.730;-1.932;2023-06-24T10:26:11;12;12;
49644;PMS5003;36494;50.730;-1.932;2023-06-24T10:31:01;11;11;
49644;PMS5003;36494;50.730;-1.932;2023-06-24T10:33:27;13;13;
49644;PMS5003;36494;50.730;-1.932;2023-06-24T10:35:53;12;12;
49644;PMS5003;36494;50.730;-1.932;2023-06-24T10:38:18;15;14;
49644;PMS5003;36494;50.730;-1.932;2023-06-24T10:40:44;12;11;
49644;PMS5003;36494;50.730;-1.932;2023-06-24T10:43:23;13;13;
49644;PMS5003;36494;50.730;-1.932;2023-06-24T10:45:35;10;10;
49644;PMS5003;36494;50.730;-1.932;2023-06-24T10:48:01;11;10;
49644;PMS5003;36494;50.730;-1.932;2023-06-24T10:50:26;11;10;
49644;PMS5003;36494;50.730;-1.932;2023-06-24T10:52:52;10;10;
49644;PMS5003;36494;50.730;-1.932;2023-06-24T10:55:17;12;12;
49644;PMS5003;36494;50.730;-1.932;2023-06-24T10:57:43;11;11;
49644;PMS5003;36494;50.730;-1.932;2023-06-24T11:00:08;11;11;
49644;PMS5003;36494;50.730;-1.932;2023-06-24T11:02:34;12;12;
49644;PMS5003;36494;50.730;-1.932;2023-06-24T11:04:59;11;10;
49644;PMS5003;36494;50.730;-1.932;2023-06-24T11:07:25;11;11;
49644;PMS5003;36494;50.730;-1.932;2023-06-24T11:09:50;11;11;
49644;PMS5003;36494;50.730;-1.932;2023-06-24T11:12:15;12;12;
49644;PMS5003;36494;50.730;-1.932;2023-06-24T11:14:40;13;13;
49644;PMS5003;36494;50.730;-1.932;2023-06-24T11:17:06;11;11;
49644;PMS5003;36494;50.730;-1.932;2023-06-24T11:19:31;9;9;
49644;PMS5003;36494;50.730;-1.932;2023-06-24T11:21:58;8;7;
49644;PMS5003;36494;50.730;-1.932;2023-06-24T11:24:21;11;11;
49644;PMS5003;36494;50.730;-1.932;2023-06-24T11:26:46;10;9;
49644;PMS5003;36494;50.730;-1.932;2023-06-24T11:29:12;8;7;
49644;PMS5003;36494;50.730;-1.932;2023-06-24T11:31:37;9;9;
49644;PMS5003;36494;50.730;-1.932;2023-06-24T11:34:03;9;9;
49644;PMS5003;36494;50.730;-1.932;2023-06-24T11:36:28;9;9;
49644;PMS5003;36494;50.730;-1.932;2023-06-24T11:38:53;8;7;
49644;PMS5003;36494;50.730;-1.932;2023-06-24T11:41:20;8;8;
49644;PMS5003;36494;50.730;-1.932;2023-06-24T11:43:44;8;7;
49644;PMS5003;36494;50.730;-1.932;2023-06-24T11:46:09;8;8;
49644;PMS5003;36494;50.730;-1.932;2023-06-24T11:48:39;8;8;
49644;PMS5003;36494;50.730;-1.932;2023-06-24T11:50:59;13;11;
49644;PMS5003;36494;50.730;-1.932;2023-06-24T11:53:30;7;7;
49644;PMS5003;36494;50.730;-1.932;2023-06-24T11:55:51;8;8;
49644;PMS5003;36494;50.730;-1.932;2023-06-24T11:58:18;11;11;
49644;PMS5003;36494;50.730;-1.932;2023-06-24T12:00:41;10;9;
49644;PMS5003;36494;50.730;-1.932;2023-06-24T12:03:06;6;6;
49644;PMS5003;36494;50.730;-1.932;2023-06-24T12:05:32;6;6;
49644;PMS5003;36494;50.730;-1.932;2023-06-24T12:07:57;9;8;
49644;PMS5003;36494;50.730;-1.932;2023-06-24T12:10:22;8;7;
49644;PMS5003;36494;50.730;-1.932;2023-06-24T12:12:47;9;8;
49644;PMS5003;36494;50.730;-1.932;2023-06-24T12:15:12;7;7;
49644;PMS5003;36494;50.730;-1.932;2023-06-24T12:17:37;8;7;
49644;PMS5003;36494;50.730;-1.932;2023-06-24T12:20:03;8;8;
49644;PMS5003;36494;50.730;-1.932;2023-06-24T12:22:28;9;8;
49644;PMS5003;36494;50.730;-1.932;2023-06-24T12:24:53;9;9;
49644;PMS5003;36494;50.730;-1.932;2023-06-24T12:27:18;9;8;
49644;PMS5003;36494;50.730;-1.932;2023-06-24T12:29:43;5;5;
49644;PMS5003;36494;50.730;-1.932;2023-06-24T12:32:09;7;6;
49644;PMS5003;36494;50.730;-1.932;2023-06-24T12:34:34;8;7;
49644;PMS5003;36494;50.730;-1.932;2023-06-24T12:37:00;9;8;
49644;PMS5003;36494;50.730;-1.932;2023-06-24T12:39:25;8;8;
49644;PMS5003;36494;50.730;-1.932;2023-06-24T12:41:50;8;8;
49644;PMS5003;36494;50.730;-1.932;2023-06-24T12:44:15;8;8;
49644;PMS5003;36494;50.730;-1.932;2023-06-24T12:46:41;8;8;
49644;PMS5003;36494;50.730;-1.932;2023-06-24T12:49:06;8;8;
49644;PMS5003;36494;50.730;-1.932;2023-06-24T12:51:31;8;8;
49644;PMS5003;36494;50.730;-1.932;2023-06-24T12:53:56;7;7;
49644;PMS5003;36494;50.730;-1.932;2023-06-24T12:56:21;8;7;
49644;PMS5003;36494;50.730;-1.932;2023-06-24T12:58:47;7;6;
49644;PMS5003;36494;50.730;-1.932;2023-06-24T13:01:12;9;6;
49644;PMS5003;36494;50.730;-1.932;2023-06-24T13:03:37;9;9;
49644;PMS5003;36494;50.730;-1.932;2023-06-24T13:06:02;8;8;
49644;PMS5003;36494;50.730;-1.932;2023-06-24T13:08:28;8;7;
49644;PMS5003;36494;50.730;-1.932;2023-06-24T13:10:53;9;9;
49644;PMS5003;36494;50.730;-1.932;2023-06-24T13:13:18;6;6;
49644;PMS5003;36494;50.730;-1.932;2023-06-24T13:15:44;10;8;
49644;PMS5003;36494;50.730;-1.932;2023-06-24T13:18:09;9;9;
49644;PMS5003;36494;50.730;-1.932;2023-06-24T13:20:34;8;8;
49644;PMS5003;36494;50.730;-1.932;2023-06-24T13:22:59;7;7;
49644;PMS5003;36494;50.730;-1.932;2023-06-24T13:25:25;9;9;
49644;PMS5003;36494;50.730;-1.932;2023-06-24T13:27:50;8;7;
49644;PMS5003;36494;50.730;-1.932;2023-06-24T13:30:16;7;6;
49644;PMS5003;36494;50.730;-1.932;2023-06-24T13:32:41;10;10;
49644;PMS5003;36494;50.730;-1.932;2023-06-24T13:35:06;6;6;
49644;PMS5003;36494;50.730;-1.932;2023-06-24T13:37:32;8;8;
49644;PMS5003;36494;50.730;-1.932;2023-06-24T13:39:57;7;7;
49644;PMS5003;36494;50.730;-1.932;2023-06-24T13:42:22;7;7;
49644;PMS5003;36494;50.730;-1.932;2023-06-24T13:44:48;10;10;
49644;PMS5003;36494;50.730;-1.932;2023-06-24T13:47:13;9;9;
49644;PMS5003;36494;50.730;-1.932;2023-06-24T13:49:38;6;6;
49644;PMS5003;36494;50.730;-1.932;2023-06-24T13:52:04;9;9;
49644;PMS5003;36494;50.730;-1.932;2023-06-24T13:54:29;6;6;
49644;PMS5003;36494;50.730;-1.932;2023-06-24T13:56:54;9;8;
49644;PMS5003;36494;50.730;-1.932;2023-06-24T13:59:19;8;8;
49644;PMS5003;36494;50.730;-1.932;2023-06-24T14:01:45;9;8;
49644;PMS5003;36494;50.730;-1.932;2023-06-24T14:04:10;9;9;
49644;PMS5003;36494;50.730;-1.932;2023-06-24T14:06:35;8;8;
49644;PMS5003;36494;50.730;-1.932;2023-06-24T14:09:00;8;8;
49644;PMS5003;36494;50.730;-1.932;2023-06-24T14:11:25;8;7;
49644;PMS5003;36494;50.730;-1.932;2023-06-24T14:13:51;12;11;
49644;PMS5003;36494;50.730;-1.932;2023-06-24T14:16:16;8;8;
49644;PMS5003;36494;50.730;-1.932;2023-06-24T14:18:42;9;8;
49644;PMS5003;36494;50.730;-1.932;2023-06-24T14:21:07;9;9;
49644;PMS5003;36494;50.730;-1.932;2023-06-24T14:23:33;9;9;
49644;PMS5003;36494;50.730;-1.932;2023-06-24T14:25:58;7;7;
49644;PMS5003;36494;50.730;-1.932;2023-06-24T14:28:23;8;8;
49644;PMS5003;36494;50.730;-1.932;2023-06-24T14:30:48;7;7;
49644;PMS5003;36494;50.730;-1.932;2023-06-24T14:33:14;8;8;
49644;PMS5003;36494;50.730;-1.932;2023-06-24T14:35:39;9;8;
49644;PMS5003;36494;50.730;-1.932;2023-06-24T14:38:04;7;7;
49644;PMS5003;36494;50.730;-1.932;2023-06-24T14:40:29;6;6;
49644;PMS5003;36494;50.730;-1.932;2023-06-24T14:42:55;6;6;
49644;PMS5003;36494;50.730;-1.932;2023-06-24T14:45:20;10;10;
49644;PMS5003;36494;50.730;-1.932;2023-06-24T14:47:46;5;4;
49644;PMS5003;36494;50.730;-1.932;2023-06-24T14:50:12;6;6;
49644;PMS5003;36494;50.730;-1.932;2023-06-24T14:52:37;6;6;
49644;PMS5003;36494;50.730;-1.932;2023-06-24T14:55:02;8;7;
49644;PMS5003;36494;50.730;-1.932;2023-06-24T14:57:27;6;6;
49644;PMS5003;36494;50.730;-1.932;2023-06-24T14:59:52;6;6;
49644;PMS5003;36494;50.730;-1.932;2023-06-24T15:02:18;8;7;
49644;PMS5003;36494;50.730;-1.932;2023-06-24T15:04:43;7;7;
49644;PMS5003;36494;50.730;-1.932;2023-06-24T15:07:08;8;8;
49644;PMS5003;36494;50.730;-1.932;2023-06-24T15:09:33;7;7;
49644;PMS5003;36494;50.730;-1.932;2023-06-24T15:11:58;6;6;
49644;PMS5003;36494;50.730;-1.932;2023-06-24T15:14:24;9;8;
49644;PMS5003;36494;50.730;-1.932;2023-06-24T15:16:49;8;7;
49644;PMS5003;36494;50.730;-1.932;2023-06-24T15:19:14;8;8;
49644;PMS5003;36494;50.730;-1.932;2023-06-24T15:21:39;7;7;
49644;PMS5003;36494;50.730;-1.932;2023-06-24T15:24:05;7;6;
49644;PMS5003;36494;50.730;-1.932;2023-06-24T15:26:31;8;7;
49644;PMS5003;36494;50.730;-1.932;2023-06-24T15:28:56;9;9;
49644;PMS5003;36494;50.730;-1.932;2023-06-24T15:31:21;8;8;
49644;PMS5003;36494;50.730;-1.932;2023-06-24T15:33:46;8;8;
49644;PMS5003;36494;50.730;-1.932;2023-06-24T15:36:12;7;7;
49644;PMS5003;36494;50.730;-1.932;2023-06-24T15:38:37;7;6;
49644;PMS5003;36494;50.730;-1.932;2023-06-24T15:41:02;7;7;
49644;PMS5003;36494;50.730;-1.932;2023-06-24T15:43:27;10;9;
49644;PMS5003;36494;50.730;-1.932;2023-06-24T15:45:53;7;7;
49644;PMS5003;36494;50.730;-1.932;2023-06-24T15:48:18;6;6;
49644;PMS5003;36494;50.730;-1.932;2023-06-24T15:50:44;6;6;
49644;PMS5003;36494;50.730;-1.932;2023-06-24T15:53:10;9;8;
49644;PMS5003;36494;50.730;-1.932;2023-06-24T15:55:35;9;8;
49644;PMS5003;36494;50.730;-1.932;2023-06-24T15:58:01;7;7;
49644;PMS5003;36494;50.730;-1.932;2023-06-24T16:00:26;9;8;
49644;PMS5003;36494;50.730;-1.932;2023-06-24T16:02:51;6;5;